sensor_id;sensor_type;location;lat;lon;timestamp;P1;durP1;ratioP1;P2;durP2;ratioP2
70228;SDS011;57617;51.988;5.854;2022-12-17T00:01:47;90.37;;;31.93;;
70228;SDS011;57617;51.988;5.854;2022-12-17T00:04:31;86.40;;;30.20;;
70228;SDS011;57617;51.988;5.854;2022-12-17T00:07:15;93.37;;;30.10;;
70228;SDS011;57617;51.988;5.854;2022-12-17T00:09:59;86.93;;;29.13;;
70228;SDS011;57617;51.988;5.854;2022-12-17T00:12:45;87.27;;;29.70;;
70228;SDS011;57617;51.988;5.854;2022-12-17T00:15:30;93.37;;;29.40;;
70228;SDS011;57617;51.988;5.854;2022-12-17T00:18:14;88.73;;;29.50;;
70228;SDS011;57617;51.988;5.854;2022-12-17T00:20:58;87.30;;;29.83;;
70228;SDS011;57617;51.988;5.854;2022-12-17T00:23:43;82.40;;;28.30;;
70228;SDS011;57617;51.988;5.854;2022-12-17T00:26:27;79.27;;;27.53;;
70228;SDS011;57617;51.988;5.854;2022-12-17T00:29:11;83.07;;;27.47;;
70228;SDS011;57617;51.988;5.854;2022-12-17T00:31:56;79.90;;;26.87;;
70228;SDS011;57617;51.988;5.854;2022-12-17T00:34:40;84.27;;;27.13;;
70228;SDS011;57617;51.988;5.854;2022-12-17T00:37:24;79.10;;;27.60;;
70228;SDS011;57617;51.988;5.854;2022-12-17T00:40:08;72.20;;;26.30;;
70228;SDS011;57617;51.988;5.854;2022-12-17T00:42:59;74.73;;;26.77;;
70228;SDS011;57617;51.988;5.854;2022-12-17T00:45:46;73.47;;;26.47;;
70228;SDS011;57617;51.988;5.854;2022-12-17T00:48:30;81.63;;;26.23;;
70228;SDS011;57617;51.988;5.854;2022-12-17T00:51:15;75.07;;;25.93;;
70228;SDS011;57617;51.988;5.854;2022-12-17T00:53:59;74.63;;;25.30;;
70228;SDS011;57617;51.988;5.854;2022-12-17T00:56:43;74.40;;;25.83;;
70228;SDS011;57617;51.988;5.854;2022-12-17T00:59:27;73.03;;;24.97;;
70228;SDS011;57617;51.988;5.854;2022-12-17T01:02:11;71.97;;;25.23;;
70228;SDS011;57617;51.988;5.854;2022-12-17T01:04:55;72.37;;;25.40;;
70228;SDS011;57617;51.988;5.854;2022-12-17T01:07:38;68.07;;;23.63;;
70228;SDS011;57617;51.988;5.854;2022-12-17T01:10:22;67.60;;;23.87;;
70228;SDS011;57617;51.988;5.854;2022-12-17T01:13:06;69.20;;;23.93;;
70228;SDS011;57617;51.988;5.854;2022-12-17T01:15:50;73.80;;;24.23;;
70228;SDS011;57617;51.988;5.854;2022-12-17T01:18:34;64.50;;;23.50;;
70228;SDS011;57617;51.988;5.854;2022-12-17T01:21:18;70.33;;;23.57;;
70228;SDS011;57617;51.988;5.854;2022-12-17T01:24:02;65.30;;;22.97;;
70228;SDS011;57617;51.988;5.854;2022-12-17T01:26:47;60.27;;;22.27;;
70228;SDS011;57617;51.988;5.854;2022-12-17T01:29:31;69.50;;;23.63;;
70228;SDS011;57617;51.988;5.854;2022-12-17T01:32:15;65.47;;;23.93;;
70228;SDS011;57617;51.988;5.854;2022-12-17T01:34:58;71.50;;;25.30;;
70228;SDS011;57617;51.988;5.854;2022-12-17T01:37:43;72.33;;;24.73;;
70228;SDS011;57617;51.988;5.854;2022-12-17T01:40:28;65.23;;;23.73;;
70228;SDS011;57617;51.988;5.854;2022-12-17T01:43:11;66.07;;;23.93;;
70228;SDS011;57617;51.988;5.854;2022-12-17T01:45:55;65.63;;;24.47;;
70228;SDS011;57617;51.988;5.854;2022-12-17T01:48:41;64.97;;;23.97;;
70228;SDS011;57617;51.988;5.854;2022-12-17T01:51:28;66.90;;;24.17;;
70228;SDS011;57617;51.988;5.854;2022-12-17T01:54:13;70.10;;;24.10;;
70228;SDS011;57617;51.988;5.854;2022-12-17T01:56:58;67.60;;;23.57;;
70228;SDS011;57617;51.988;5.854;2022-12-17T01:59:57;67.17;;;23.83;;
70228;SDS011;57617;51.988;5.854;2022-12-17T02:02:44;66.10;;;23.77;;
70228;SDS011;57617;51.988;5.854;2022-12-17T02:05:31;73.47;;;24.43;;
70228;SDS011;57617;51.988;5.854;2022-12-17T02:08:28;67.50;;;24.03;;
70228;SDS011;57617;51.988;5.854;2022-12-17T02:11:33;68.87;;;23.60;;
70228;SDS011;57617;51.988;5.854;2022-12-17T02:17:16;68.37;;;22.77;;
70228;SDS011;57617;51.988;5.854;2022-12-17T02:26:03;65.13;;;22.27;;
70228;SDS011;57617;51.988;5.854;2022-12-17T02:28:54;58.07;;;23.23;;
70228;SDS011;57617;51.988;5.854;2022-12-17T02:31:40;65.60;;;23.53;;
70228;SDS011;57617;51.988;5.854;2022-12-17T02:34:26;68.70;;;23.47;;
70228;SDS011;57617;51.988;5.854;2022-12-17T02:37:11;65.53;;;23.27;;
70228;SDS011;57617;51.988;5.854;2022-12-17T02:39:58;68.33;;;23.20;;
70228;SDS011;57617;51.988;5.854;2022-12-17T02:42:42;68.63;;;22.90;;
70228;SDS011;57617;51.988;5.854;2022-12-17T02:45:29;71.10;;;24.93;;
70228;SDS011;57617;51.988;5.854;2022-12-17T02:48:14;67.93;;;23.90;;
70228;SDS011;57617;51.988;5.854;2022-12-17T02:50:59;67.27;;;23.83;;
70228;SDS011;57617;51.988;5.854;2022-12-17T02:53:43;68.70;;;23.57;;
70228;SDS011;57617;51.988;5.854;2022-12-17T02:56:29;63.60;;;23.93;;
70228;SDS011;57617;51.988;5.854;2022-12-17T02:59:13;70.37;;;24.13;;
70228;SDS011;57617;51.988;5.854;2022-12-17T03:01:57;68.80;;;24.53;;
70228;SDS011;57617;51.988;5.854;2022-12-17T03:04:41;76.37;;;25.23;;
70228;SDS011;57617;51.988;5.854;2022-12-17T03:07:24;78.90;;;25.80;;
70228;SDS011;57617;51.988;5.854;2022-12-17T03:10:11;72.57;;;23.83;;
70228;SDS011;57617;51.988;5.854;2022-12-17T03:12:55;73.57;;;25.27;;
70228;SDS011;57617;51.988;5.854;2022-12-17T03:15:39;71.33;;;25.60;;
70228;SDS011;57617;51.988;5.854;2022-12-17T03:18:23;75.00;;;25.43;;
70228;SDS011;57617;51.988;5.854;2022-12-17T03:21:07;74.53;;;24.67;;
70228;SDS011;57617;51.988;5.854;2022-12-17T03:23:51;77.33;;;25.00;;
70228;SDS011;57617;51.988;5.854;2022-12-17T03:26:35;76.37;;;24.83;;
70228;SDS011;57617;51.988;5.854;2022-12-17T03:29:39;74.13;;;25.67;;
70228;SDS011;57617;51.988;5.854;2022-12-17T03:32:31;78.30;;;26.53;;
70228;SDS011;57617;51.988;5.854;2022-12-17T03:35:15;80.17;;;26.30;;
70228;SDS011;57617;51.988;5.854;2022-12-17T03:37:58;75.87;;;25.93;;
70228;SDS011;57617;51.988;5.854;2022-12-17T03:40:43;70.50;;;24.67;;
70228;SDS011;57617;51.988;5.854;2022-12-17T03:43:32;75.67;;;24.70;;
70228;SDS011;57617;51.988;5.854;2022-12-17T03:46:16;74.43;;;24.90;;
70228;SDS011;57617;51.988;5.854;2022-12-17T03:49:00;69.30;;;23.57;;
70228;SDS011;57617;51.988;5.854;2022-12-17T03:51:45;62.93;;;21.73;;
70228;SDS011;57617;51.988;5.854;2022-12-17T03:54:28;70.43;;;23.17;;
70228;SDS011;57617;51.988;5.854;2022-12-17T03:57:13;68.13;;;23.77;;
70228;SDS011;57617;51.988;5.854;2022-12-17T03:59:56;68.97;;;23.83;;
70228;SDS011;57617;51.988;5.854;2022-12-17T04:02:40;66.67;;;23.73;;
70228;SDS011;57617;51.988;5.854;2022-12-17T04:05:25;73.70;;;24.57;;
70228;SDS011;57617;51.988;5.854;2022-12-17T04:08:09;72.73;;;23.47;;
70228;SDS011;57617;51.988;5.854;2022-12-17T04:10:53;68.87;;;23.07;;
70228;SDS011;57617;51.988;5.854;2022-12-17T04:13:37;72.20;;;24.10;;
70228;SDS011;57617;51.988;5.854;2022-12-17T04:16:21;68.60;;;23.50;;
70228;SDS011;57617;51.988;5.854;2022-12-17T04:19:04;66.20;;;22.63;;
70228;SDS011;57617;51.988;5.854;2022-12-17T04:21:48;68.87;;;23.30;;
70228;SDS011;57617;51.988;5.854;2022-12-17T04:24:32;68.30;;;23.93;;
70228;SDS011;57617;51.988;5.854;2022-12-17T04:27:16;70.80;;;23.30;;
70228;SDS011;57617;51.988;5.854;2022-12-17T04:30:00;68.73;;;24.37;;
70228;SDS011;57617;51.988;5.854;2022-12-17T04:32:44;72.90;;;25.13;;
70228;SDS011;57617;51.988;5.854;2022-12-17T04:35:28;67.13;;;23.03;;
70228;SDS011;57617;51.988;5.854;2022-12-17T04:38:12;65.87;;;23.83;;
70228;SDS011;57617;51.988;5.854;2022-12-17T04:40:56;78.70;;;25.17;;
70228;SDS011;57617;51.988;5.854;2022-12-17T04:43:40;71.63;;;23.87;;
70228;SDS011;57617;51.988;5.854;2022-12-17T04:46:24;65.37;;;24.00;;
70228;SDS011;57617;51.988;5.854;2022-12-17T04:49:08;75.23;;;23.33;;
70228;SDS011;57617;51.988;5.854;2022-12-17T04:51:52;74.30;;;24.23;;
70228;SDS011;57617;51.988;5.854;2022-12-17T04:54:36;74.90;;;25.30;;
70228;SDS011;57617;51.988;5.854;2022-12-17T04:57:20;71.50;;;24.10;;
70228;SDS011;57617;51.988;5.854;2022-12-17T05:00:04;77.87;;;26.30;;
70228;SDS011;57617;51.988;5.854;2022-12-17T05:02:48;78.80;;;26.23;;
70228;SDS011;57617;51.988;5.854;2022-12-17T05:05:32;76.93;;;25.57;;
70228;SDS011;57617;51.988;5.854;2022-12-17T05:08:16;76.67;;;25.40;;
70228;SDS011;57617;51.988;5.854;2022-12-17T05:11:01;75.43;;;25.50;;
70228;SDS011;57617;51.988;5.854;2022-12-17T05:13:46;81.17;;;26.77;;
70228;SDS011;57617;51.988;5.854;2022-12-17T05:16:30;77.70;;;25.70;;
70228;SDS011;57617;51.988;5.854;2022-12-17T05:19:14;79.90;;;26.17;;
70228;SDS011;57617;51.988;5.854;2022-12-17T05:21:58;77.03;;;26.50;;
70228;SDS011;57617;51.988;5.854;2022-12-17T05:24:42;80.73;;;26.67;;
70228;SDS011;57617;51.988;5.854;2022-12-17T05:27:26;76.33;;;27.00;;
70228;SDS011;57617;51.988;5.854;2022-12-17T05:30:10;82.00;;;27.23;;
70228;SDS011;57617;51.988;5.854;2022-12-17T05:32:57;81.90;;;27.23;;
70228;SDS011;57617;51.988;5.854;2022-12-17T05:35:46;77.73;;;27.00;;
70228;SDS011;57617;51.988;5.854;2022-12-17T05:38:30;85.07;;;27.97;;
70228;SDS011;57617;51.988;5.854;2022-12-17T05:41:14;81.30;;;27.90;;
70228;SDS011;57617;51.988;5.854;2022-12-17T05:43:58;84.70;;;27.77;;
70228;SDS011;57617;51.988;5.854;2022-12-17T05:46:42;85.53;;;27.20;;
70228;SDS011;57617;51.988;5.854;2022-12-17T05:49:26;78.13;;;27.73;;
70228;SDS011;57617;51.988;5.854;2022-12-17T05:52:10;79.60;;;28.07;;
70228;SDS011;57617;51.988;5.854;2022-12-17T05:54:54;87.03;;;28.90;;
70228;SDS011;57617;51.988;5.854;2022-12-17T05:57:38;82.37;;;28.17;;
70228;SDS011;57617;51.988;5.854;2022-12-17T06:00:22;86.83;;;27.93;;
70228;SDS011;57617;51.988;5.854;2022-12-17T06:03:07;87.03;;;28.07;;
70228;SDS011;57617;51.988;5.854;2022-12-17T06:05:55;77.97;;;27.53;;
70228;SDS011;57617;51.988;5.854;2022-12-17T06:08:39;88.73;;;27.97;;
70228;SDS011;57617;51.988;5.854;2022-12-17T06:11:23;83.77;;;27.90;;
70228;SDS011;57617;51.988;5.854;2022-12-17T06:14:07;81.87;;;27.60;;
70228;SDS011;57617;51.988;5.854;2022-12-17T06:16:51;77.47;;;26.57;;
70228;SDS011;57617;51.988;5.854;2022-12-17T06:19:35;84.13;;;28.90;;
70228;SDS011;57617;51.988;5.854;2022-12-17T06:22:19;82.10;;;28.90;;
70228;SDS011;57617;51.988;5.854;2022-12-17T06:25:03;79.47;;;27.53;;
70228;SDS011;57617;51.988;5.854;2022-12-17T06:27:47;85.03;;;28.27;;
70228;SDS011;57617;51.988;5.854;2022-12-17T06:30:31;86.10;;;27.70;;
70228;SDS011;57617;51.988;5.854;2022-12-17T06:33:15;90.60;;;28.83;;
70228;SDS011;57617;51.988;5.854;2022-12-17T06:35:59;84.47;;;28.07;;
70228;SDS011;57617;51.988;5.854;2022-12-17T06:38:43;84.97;;;28.83;;
70228;SDS011;57617;51.988;5.854;2022-12-17T06:41:27;89.90;;;29.93;;
70228;SDS011;57617;51.988;5.854;2022-12-17T06:44:11;90.17;;;30.23;;
70228;SDS011;57617;51.988;5.854;2022-12-17T06:46:55;90.53;;;28.60;;
70228;SDS011;57617;51.988;5.854;2022-12-17T06:49:39;91.20;;;29.13;;
70228;SDS011;57617;51.988;5.854;2022-12-17T06:52:23;83.60;;;28.47;;
70228;SDS011;57617;51.988;5.854;2022-12-17T06:55:07;90.53;;;29.53;;
70228;SDS011;57617;51.988;5.854;2022-12-17T06:57:55;90.60;;;28.87;;
70228;SDS011;57617;51.988;5.854;2022-12-17T07:00:43;88.73;;;27.97;;
70228;SDS011;57617;51.988;5.854;2022-12-17T07:03:27;87.77;;;29.20;;
70228;SDS011;57617;51.988;5.854;2022-12-17T07:06:11;83.63;;;28.03;;
70228;SDS011;57617;51.988;5.854;2022-12-17T07:08:55;79.80;;;27.83;;
70228;SDS011;57617;51.988;5.854;2022-12-17T07:11:39;85.97;;;29.17;;
70228;SDS011;57617;51.988;5.854;2022-12-17T07:14:23;85.77;;;28.10;;
70228;SDS011;57617;51.988;5.854;2022-12-17T07:17:07;85.80;;;28.33;;
70228;SDS011;57617;51.988;5.854;2022-12-17T07:19:51;84.37;;;29.60;;
70228;SDS011;57617;51.988;5.854;2022-12-17T07:22:35;86.90;;;27.37;;
70228;SDS011;57617;51.988;5.854;2022-12-17T07:25:19;87.13;;;28.77;;
70228;SDS011;57617;51.988;5.854;2022-12-17T07:28:03;79.37;;;28.03;;
70228;SDS011;57617;51.988;5.854;2022-12-17T07:30:47;86.97;;;27.93;;
70228;SDS011;57617;51.988;5.854;2022-12-17T07:33:31;83.43;;;27.87;;
70228;SDS011;57617;51.988;5.854;2022-12-17T07:36:15;86.93;;;28.10;;
70228;SDS011;57617;51.988;5.854;2022-12-17T07:38:59;78.43;;;28.07;;
70228;SDS011;57617;51.988;5.854;2022-12-17T07:41:43;87.50;;;29.13;;
70228;SDS011;57617;51.988;5.854;2022-12-17T07:44:27;91.57;;;28.63;;
70228;SDS011;57617;51.988;5.854;2022-12-17T07:47:11;88.03;;;28.83;;
70228;SDS011;57617;51.988;5.854;2022-12-17T07:49:55;87.40;;;27.57;;
70228;SDS011;57617;51.988;5.854;2022-12-17T07:52:39;82.73;;;27.67;;
70228;SDS011;57617;51.988;5.854;2022-12-17T07:55:23;82.03;;;27.57;;
70228;SDS011;57617;51.988;5.854;2022-12-17T07:58:08;95.07;;;28.77;;
70228;SDS011;57617;51.988;5.854;2022-12-17T08:00:53;85.63;;;27.47;;
70228;SDS011;57617;51.988;5.854;2022-12-17T08:03:37;89.73;;;28.90;;
70228;SDS011;57617;51.988;5.854;2022-12-17T08:06:21;84.87;;;28.07;;
70228;SDS011;57617;51.988;5.854;2022-12-17T08:09:05;91.37;;;28.93;;
70228;SDS011;57617;51.988;5.854;2022-12-17T08:11:49;93.47;;;30.10;;
70228;SDS011;57617;51.988;5.854;2022-12-17T08:14:33;89.77;;;29.27;;
70228;SDS011;57617;51.988;5.854;2022-12-17T08:17:17;90.77;;;29.90;;
70228;SDS011;57617;51.988;5.854;2022-12-17T08:20:01;97.97;;;30.23;;
70228;SDS011;57617;51.988;5.854;2022-12-17T08:22:45;96.33;;;30.40;;
70228;SDS011;57617;51.988;5.854;2022-12-17T08:25:29;95.97;;;29.33;;
70228;SDS011;57617;51.988;5.854;2022-12-17T08:28:13;90.60;;;30.07;;
70228;SDS011;57617;51.988;5.854;2022-12-17T08:30:57;96.07;;;29.87;;
70228;SDS011;57617;51.988;5.854;2022-12-17T08:33:41;95.30;;;29.57;;
70228;SDS011;57617;51.988;5.854;2022-12-17T08:36:25;93.70;;;30.40;;
70228;SDS011;57617;51.988;5.854;2022-12-17T08:39:09;89.10;;;28.47;;
70228;SDS011;57617;51.988;5.854;2022-12-17T08:41:53;88.53;;;29.23;;
70228;SDS011;57617;51.988;5.854;2022-12-17T08:44:37;89.67;;;29.57;;
70228;SDS011;57617;51.988;5.854;2022-12-17T08:47:21;96.43;;;30.07;;
70228;SDS011;57617;51.988;5.854;2022-12-17T08:50:05;93.70;;;30.87;;
70228;SDS011;57617;51.988;5.854;2022-12-17T08:52:56;93.97;;;30.73;;
70228;SDS011;57617;51.988;5.854;2022-12-17T08:55:40;95.90;;;30.07;;
70228;SDS011;57617;51.988;5.854;2022-12-17T08:58:24;89.60;;;29.50;;
70228;SDS011;57617;51.988;5.854;2022-12-17T09:01:08;97.37;;;29.53;;
70228;SDS011;57617;51.988;5.854;2022-12-17T09:03:52;94.90;;;31.33;;
70228;SDS011;57617;51.988;5.854;2022-12-17T09:06:36;91.73;;;30.63;;
70228;SDS011;57617;51.988;5.854;2022-12-17T09:09:20;95.27;;;31.80;;
70228;SDS011;57617;51.988;5.854;2022-12-17T09:12:04;94.37;;;30.40;;
70228;SDS011;57617;51.988;5.854;2022-12-17T09:14:48;99.20;;;31.00;;
70228;SDS011;57617;51.988;5.854;2022-12-17T09:17:32;101.67;;;31.20;;
70228;SDS011;57617;51.988;5.854;2022-12-17T09:20:16;97.00;;;30.07;;
70228;SDS011;57617;51.988;5.854;2022-12-17T09:23:00;97.80;;;31.63;;
70228;SDS011;57617;51.988;5.854;2022-12-17T09:25:50;100.27;;;32.23;;
70228;SDS011;57617;51.988;5.854;2022-12-17T09:28:38;103.37;;;32.10;;
70228;SDS011;57617;51.988;5.854;2022-12-17T09:31:22;105.67;;;31.67;;
70228;SDS011;57617;51.988;5.854;2022-12-17T09:34:05;96.87;;;31.57;;
70228;SDS011;57617;51.988;5.854;2022-12-17T09:36:49;101.43;;;32.67;;
70228;SDS011;57617;51.988;5.854;2022-12-17T09:39:34;105.67;;;31.47;;
70228;SDS011;57617;51.988;5.854;2022-12-17T09:42:22;89.87;;;31.43;;
70228;SDS011;57617;51.988;5.854;2022-12-17T09:45:13;103.13;;;31.27;;
70228;SDS011;57617;51.988;5.854;2022-12-17T09:50:54;90.50;;;30.30;;
70228;SDS011;57617;51.988;5.854;2022-12-17T09:53:41;97.93;;;30.67;;
70228;SDS011;57617;51.988;5.854;2022-12-17T09:56:28;102.17;;;31.83;;
70228;SDS011;57617;51.988;5.854;2022-12-17T09:59:19;99.23;;;31.67;;
70228;SDS011;57617;51.988;5.854;2022-12-17T10:02:25;97.57;;;30.07;;
70228;SDS011;57617;51.988;5.854;2022-12-17T10:05:14;88.80;;;30.57;;
70228;SDS011;57617;51.988;5.854;2022-12-17T10:08:05;105.00;;;36.67;;
70228;SDS011;57617;51.988;5.854;2022-12-17T10:10:50;94.10;;;29.67;;
70228;SDS011;57617;51.988;5.854;2022-12-17T10:13:35;89.33;;;30.13;;
70228;SDS011;57617;51.988;5.854;2022-12-17T10:16:27;86.93;;;29.13;;
70228;SDS011;57617;51.988;5.854;2022-12-17T10:19:14;98.20;;;31.20;;
70228;SDS011;57617;51.988;5.854;2022-12-17T10:22:06;90.97;;;29.80;;
70228;SDS011;57617;51.988;5.854;2022-12-17T10:24:55;86.57;;;29.33;;
70228;SDS011;57617;51.988;5.854;2022-12-17T10:27:39;93.97;;;31.53;;
70228;SDS011;57617;51.988;5.854;2022-12-17T10:30:23;95.30;;;32.37;;
70228;SDS011;57617;51.988;5.854;2022-12-17T10:33:10;97.70;;;30.17;;
70228;SDS011;57617;51.988;5.854;2022-12-17T10:36:01;88.30;;;29.67;;
70228;SDS011;57617;51.988;5.854;2022-12-17T10:38:51;85.57;;;27.13;;
70228;SDS011;57617;51.988;5.854;2022-12-17T10:41:40;92.97;;;29.60;;
70228;SDS011;57617;51.988;5.854;2022-12-17T10:44:26;90.27;;;30.03;;
70228;SDS011;57617;51.988;5.854;2022-12-17T10:47:18;93.40;;;30.57;;
70228;SDS011;57617;51.988;5.854;2022-12-17T10:50:04;91.07;;;28.87;;
70228;SDS011;57617;51.988;5.854;2022-12-17T10:52:53;86.50;;;28.97;;
70228;SDS011;57617;51.988;5.854;2022-12-17T10:55:44;94.73;;;30.33;;
70228;SDS011;57617;51.988;5.854;2022-12-17T10:58:34;96.20;;;31.17;;
70228;SDS011;57617;51.988;5.854;2022-12-17T11:01:22;106.67;;;32.03;;
70228;SDS011;57617;51.988;5.854;2022-12-17T11:07:08;89.03;;;30.13;;
70228;SDS011;57617;51.988;5.854;2022-12-17T11:09:56;95.37;;;31.67;;
70228;SDS011;57617;51.988;5.854;2022-12-17T11:12:47;99.53;;;31.60;;
70228;SDS011;57617;51.988;5.854;2022-12-17T11:15:44;93.43;;;29.50;;
70228;SDS011;57617;51.988;5.854;2022-12-17T11:18:54;94.47;;;30.30;;
70228;SDS011;57617;51.988;5.854;2022-12-17T11:21:47;89.80;;;30.70;;
70228;SDS011;57617;51.988;5.854;2022-12-17T11:24:40;91.13;;;30.40;;
70228;SDS011;57617;51.988;5.854;2022-12-17T11:27:34;95.20;;;30.70;;
70228;SDS011;57617;51.988;5.854;2022-12-17T11:30:25;101.37;;;32.13;;
70228;SDS011;57617;51.988;5.854;2022-12-17T11:36:09;100.00;;;30.73;;
70228;SDS011;57617;51.988;5.854;2022-12-17T11:39:12;96.17;;;31.50;;
70228;SDS011;57617;51.988;5.854;2022-12-17T11:45:03;91.80;;;30.67;;
70228;SDS011;57617;51.988;5.854;2022-12-17T11:48:04;91.13;;;30.90;;
70228;SDS011;57617;51.988;5.854;2022-12-17T11:51:02;89.90;;;30.10;;
70228;SDS011;57617;51.988;5.854;2022-12-17T11:54:10;89.93;;;30.13;;
70228;SDS011;57617;51.988;5.854;2022-12-17T11:57:26;96.53;;;32.00;;
70228;SDS011;57617;51.988;5.854;2022-12-17T12:00:14;92.47;;;30.50;;
70228;SDS011;57617;51.988;5.854;2022-12-17T12:05:51;82.07;;;28.83;;
70228;SDS011;57617;51.988;5.854;2022-12-17T12:08:41;92.80;;;31.43;;
70228;SDS011;57617;51.988;5.854;2022-12-17T12:12:04;92.00;;;30.20;;
70228;SDS011;57617;51.988;5.854;2022-12-17T12:18:54;87.63;;;30.10;;
70228;SDS011;57617;51.988;5.854;2022-12-17T12:31:20;91.90;;;31.57;;
70228;SDS011;57617;51.988;5.854;2022-12-17T12:34:29;92.63;;;30.23;;
70228;SDS011;57617;51.988;5.854;2022-12-17T12:37:16;90.97;;;30.03;;
70228;SDS011;57617;51.988;5.854;2022-12-17T12:40:21;96.20;;;31.77;;
70228;SDS011;57617;51.988;5.854;2022-12-17T12:51:57;89.77;;;30.90;;
70228;SDS011;57617;51.988;5.854;2022-12-17T12:57:40;91.17;;;29.90;;
70228;SDS011;57617;51.988;5.854;2022-12-17T13:00:38;97.30;;;31.23;;
70228;SDS011;57617;51.988;5.854;2022-12-17T13:11:41;99.23;;;31.80;;
70228;SDS011;57617;51.988;5.854;2022-12-17T13:14:21;97.50;;;31.67;;
70228;SDS011;57617;51.988;5.854;2022-12-17T13:17:04;98.20;;;31.33;;
70228;SDS011;57617;51.988;5.854;2022-12-17T13:19:44;96.13;;;30.30;;
70228;SDS011;57617;51.988;5.854;2022-12-17T13:24:39;86.57;;;29.67;;
70228;SDS011;57617;51.988;5.854;2022-12-17T13:27:26;97.80;;;31.30;;
70228;SDS011;57617;51.988;5.854;2022-12-17T13:29:52;91.00;;;30.83;;
70228;SDS011;57617;51.988;5.854;2022-12-17T13:32:19;95.80;;;29.60;;
70228;SDS011;57617;51.988;5.854;2022-12-17T13:40:13;95.17;;;30.10;;
70228;SDS011;57617;51.988;5.854;2022-12-17T13:42:57;94.23;;;29.77;;
70228;SDS011;57617;51.988;5.854;2022-12-17T13:45:23;98.00;;;30.73;;
70228;SDS011;57617;51.988;5.854;2022-12-17T13:47:53;91.80;;;30.37;;
70228;SDS011;57617;51.988;5.854;2022-12-17T13:50:21;99.00;;;31.40;;
70228;SDS011;57617;51.988;5.854;2022-12-17T13:52:49;95.03;;;30.90;;
70228;SDS011;57617;51.988;5.854;2022-12-17T13:55:18;102.53;;;31.83;;
70228;SDS011;57617;51.988;5.854;2022-12-17T13:57:46;90.77;;;28.73;;
70228;SDS011;57617;51.988;5.854;2022-12-17T14:00:21;91.07;;;30.20;;
70228;SDS011;57617;51.988;5.854;2022-12-17T14:02:48;101.53;;;32.27;;
70228;SDS011;57617;51.988;5.854;2022-12-17T14:05:21;93.83;;;29.83;;
70228;SDS011;57617;51.988;5.854;2022-12-17T14:07:49;94.77;;;30.00;;
70228;SDS011;57617;51.988;5.854;2022-12-17T14:10:15;97.17;;;31.60;;
70228;SDS011;57617;51.988;5.854;2022-12-17T14:12:42;90.50;;;29.13;;
70228;SDS011;57617;51.988;5.854;2022-12-17T14:15:16;95.13;;;30.63;;
70228;SDS011;57617;51.988;5.854;2022-12-17T14:17:53;98.03;;;29.37;;
70228;SDS011;57617;51.988;5.854;2022-12-17T14:20:21;89.97;;;28.80;;
70228;SDS011;57617;51.988;5.854;2022-12-17T14:22:49;90.73;;;28.63;;
70228;SDS011;57617;51.988;5.854;2022-12-17T14:25:21;81.20;;;27.63;;
70228;SDS011;57617;51.988;5.854;2022-12-17T14:27:51;85.83;;;28.10;;
70228;SDS011;57617;51.988;5.854;2022-12-17T14:30:40;86.53;;;27.00;;
70228;SDS011;57617;51.988;5.854;2022-12-17T14:38:39;92.00;;;28.53;;
70228;SDS011;57617;51.988;5.854;2022-12-17T14:41:18;86.30;;;26.43;;
70228;SDS011;57617;51.988;5.854;2022-12-17T14:44:02;94.93;;;29.43;;
70228;SDS011;57617;51.988;5.854;2022-12-17T14:46:28;92.27;;;29.70;;
70228;SDS011;57617;51.988;5.854;2022-12-17T14:48:55;91.90;;;29.33;;
70228;SDS011;57617;51.988;5.854;2022-12-17T14:56:50;105.00;;;29.70;;
70228;SDS011;57617;51.988;5.854;2022-12-17T15:01:59;98.00;;;28.57;;
70228;SDS011;57617;51.988;5.854;2022-12-17T15:04:27;88.53;;;28.07;;
70228;SDS011;57617;51.988;5.854;2022-12-17T15:06:54;94.63;;;29.53;;
70228;SDS011;57617;51.988;5.854;2022-12-17T15:09:19;94.60;;;27.63;;
70228;SDS011;57617;51.988;5.854;2022-12-17T15:11:44;96.57;;;29.63;;
70228;SDS011;57617;51.988;5.854;2022-12-17T15:14:10;97.27;;;30.70;;
70228;SDS011;57617;51.988;5.854;2022-12-17T15:16:35;92.67;;;28.50;;
70228;SDS011;57617;51.988;5.854;2022-12-17T15:19:00;84.37;;;26.47;;
70228;SDS011;57617;51.988;5.854;2022-12-17T15:21:26;87.93;;;25.70;;
70228;SDS011;57617;51.988;5.854;2022-12-17T15:23:51;89.03;;;26.23;;
70228;SDS011;57617;51.988;5.854;2022-12-17T15:26:17;86.83;;;26.87;;
70228;SDS011;57617;51.988;5.854;2022-12-17T15:28:43;107.32;;;37.42;;
70228;SDS011;57617;51.988;5.854;2022-12-17T15:31:10;87.23;;;29.07;;
70228;SDS011;57617;51.988;5.854;2022-12-17T15:33:37;103.03;;;31.10;;
70228;SDS011;57617;51.988;5.854;2022-12-17T15:36:03;92.63;;;28.33;;
70228;SDS011;57617;51.988;5.854;2022-12-17T15:38:28;94.00;;;29.27;;
70228;SDS011;57617;51.988;5.854;2022-12-17T15:40:54;92.80;;;28.27;;
70228;SDS011;57617;51.988;5.854;2022-12-17T15:43:19;87.70;;;26.90;;
70228;SDS011;57617;51.988;5.854;2022-12-17T15:45:48;87.87;;;26.80;;
70228;SDS011;57617;51.988;5.854;2022-12-17T15:48:16;98.07;;;30.53;;
70228;SDS011;57617;51.988;5.854;2022-12-17T15:50:43;86.37;;;29.33;;
70228;SDS011;57617;51.988;5.854;2022-12-17T15:53:09;97.23;;;30.70;;
70228;SDS011;57617;51.988;5.854;2022-12-17T15:55:34;89.87;;;28.90;;
70228;SDS011;57617;51.988;5.854;2022-12-17T15:58:01;92.20;;;29.07;;
70228;SDS011;57617;51.988;5.854;2022-12-17T16:00:26;90.83;;;28.77;;
70228;SDS011;57617;51.988;5.854;2022-12-17T16:02:51;93.27;;;28.57;;
70228;SDS011;57617;51.988;5.854;2022-12-17T16:05:17;91.27;;;28.93;;
70228;SDS011;57617;51.988;5.854;2022-12-17T16:07:42;94.53;;;29.53;;
70228;SDS011;57617;51.988;5.854;2022-12-17T16:10:08;91.93;;;30.37;;
70228;SDS011;57617;51.988;5.854;2022-12-17T16:12:35;98.50;;;30.90;;
70228;SDS011;57617;51.988;5.854;2022-12-17T16:15:01;102.60;;;30.80;;
70228;SDS011;57617;51.988;5.854;2022-12-17T16:17:26;90.77;;;28.80;;
70228;SDS011;57617;51.988;5.854;2022-12-17T16:19:51;111.13;;;33.87;;
70228;SDS011;57617;51.988;5.854;2022-12-17T16:22:17;106.20;;;35.20;;
70228;SDS011;57617;51.988;5.854;2022-12-17T16:24:42;98.47;;;32.53;;
70228;SDS011;57617;51.988;5.854;2022-12-17T16:27:08;103.73;;;33.00;;
70228;SDS011;57617;51.988;5.854;2022-12-17T16:29:33;101.47;;;31.50;;
70228;SDS011;57617;51.988;5.854;2022-12-17T16:31:58;102.17;;;30.77;;
70228;SDS011;57617;51.988;5.854;2022-12-17T16:34:24;96.93;;;30.47;;
70228;SDS011;57617;51.988;5.854;2022-12-17T16:36:49;99.73;;;31.77;;
70228;SDS011;57617;51.988;5.854;2022-12-17T16:39:15;100.43;;;31.23;;
70228;SDS011;57617;51.988;5.854;2022-12-17T16:41:42;96.23;;;30.23;;
70228;SDS011;57617;51.988;5.854;2022-12-17T16:44:08;105.07;;;29.50;;
70228;SDS011;57617;51.988;5.854;2022-12-17T16:46:37;98.63;;;30.20;;
70228;SDS011;57617;51.988;5.854;2022-12-17T16:49:08;92.03;;;29.37;;
70228;SDS011;57617;51.988;5.854;2022-12-17T16:51:34;99.10;;;29.93;;
70228;SDS011;57617;51.988;5.854;2022-12-17T16:54:02;98.13;;;30.37;;
70228;SDS011;57617;51.988;5.854;2022-12-17T16:56:29;95.67;;;30.67;;
70228;SDS011;57617;51.988;5.854;2022-12-17T16:58:55;91.80;;;30.10;;
70228;SDS011;57617;51.988;5.854;2022-12-17T17:01:21;93.07;;;30.83;;
70228;SDS011;57617;51.988;5.854;2022-12-17T17:03:48;100.37;;;33.40;;
70228;SDS011;57617;51.988;5.854;2022-12-17T17:06:15;93.60;;;31.73;;